sensor_id;sensor_type;location;lat;lon;timestamp;P1;durP1;ratioP1;P2;durP2;ratioP2
21432;SDS011;18592;49.708;10.900;2023-12-20T00:00:10;4.85;;;3.88;;
21432;SDS011;18592;49.708;10.900;2023-12-20T00:02:12;4.57;;;3.67;;
21432;SDS011;18592;49.708;10.900;2023-12-20T00:04:14;4.38;;;3.88;;
21432;SDS011;18592;49.708;10.900;2023-12-20T00:06:15;5.32;;;3.90;;
21432;SDS011;18592;49.708;10.900;2023-12-20T00:08:17;5.53;;;3.92;;
21432;SDS011;18592;49.708;10.900;2023-12-20T00:10:18;7.22;;;3.80;;
21432;SDS011;18592;49.708;10.900;2023-12-20T00:12:20;5.75;;;4.53;;
21432;SDS011;18592;49.708;10.900;2023-12-20T00:14:22;5.50;;;3.90;;
21432;SDS011;18592;49.708;10.900;2023-12-20T00:16:27;6.45;;;3.97;;
21432;SDS011;18592;49.708;10.900;2023-12-20T00:18:29;5.55;;;3.65;;
21432;SDS011;18592;49.708;10.900;2023-12-20T00:20:35;4.25;;;3.85;;
21432;SDS011;18592;49.708;10.900;2023-12-20T00:22:37;4.63;;;3.67;;
21432;SDS011;18592;49.708;10.900;2023-12-20T00:24:38;4.72;;;3.83;;
21432;SDS011;18592;49.708;10.900;2023-12-20T00:26:40;5.15;;;4.00;;
21432;SDS011;18592;49.708;10.900;2023-12-20T00:28:41;5.65;;;3.78;;
21432;SDS011;18592;49.708;10.900;2023-12-20T00:30:44;3.95;;;3.47;;
21432;SDS011;18592;49.708;10.900;2023-12-20T00:32:45;6.03;;;4.05;;
21432;SDS011;18592;49.708;10.900;2023-12-20T00:34:50;4.35;;;3.38;;
21432;SDS011;18592;49.708;10.900;2023-12-20T00:36:51;4.03;;;3.17;;
21432;SDS011;18592;49.708;10.900;2023-12-20T00:38:53;3.85;;;3.15;;
21432;SDS011;18592;49.708;10.900;2023-12-20T00:40:54;4.05;;;3.17;;
21432;SDS011;18592;49.708;10.900;2023-12-20T00:42:56;5.22;;;3.50;;
21432;SDS011;18592;49.708;10.900;2023-12-20T00:44:58;4.00;;;3.17;;
21432;SDS011;18592;49.708;10.900;2023-12-20T00:47:00;3.65;;;3.15;;
21432;SDS011;18592;49.708;10.900;2023-12-20T00:49:02;4.43;;;3.08;;
21432;SDS011;18592;49.708;10.900;2023-12-20T00:51:03;5.35;;;3.13;;
21432;SDS011;18592;49.708;10.900;2023-12-20T00:53:05;3.70;;;2.72;;
21432;SDS011;18592;49.708;10.900;2023-12-20T00:55:07;4.45;;;2.83;;
21432;SDS011;18592;49.708;10.900;2023-12-20T00:57:09;4.60;;;3.13;;
21432;SDS011;18592;49.708;10.900;2023-12-20T00:59:10;4.00;;;2.83;;
21432;SDS011;18592;49.708;10.900;2023-12-20T01:01:12;3.28;;;2.53;;
21432;SDS011;18592;49.708;10.900;2023-12-20T01:03:14;3.33;;;2.83;;
21432;SDS011;18592;49.708;10.900;2023-12-20T01:05:17;3.05;;;2.30;;
21432;SDS011;18592;49.708;10.900;2023-12-20T01:07:19;3.92;;;2.85;;
21432;SDS011;18592;49.708;10.900;2023-12-20T01:09:21;3.60;;;2.33;;
21432;SDS011;18592;49.708;10.900;2023-12-20T01:11:24;2.88;;;2.25;;
21432;SDS011;18592;49.708;10.900;2023-12-20T01:13:26;2.72;;;2.30;;
21432;SDS011;18592;49.708;10.900;2023-12-20T01:15:27;2.60;;;2.00;;
21432;SDS011;18592;49.708;10.900;2023-12-20T01:17:29;2.20;;;1.77;;
21432;SDS011;18592;49.708;10.900;2023-12-20T01:19:30;2.75;;;1.92;;
21432;SDS011;18592;49.708;10.900;2023-12-20T01:21:32;2.72;;;2.13;;
21432;SDS011;18592;49.708;10.900;2023-12-20T01:23:33;2.42;;;1.92;;
21432;SDS011;18592;49.708;10.900;2023-12-20T01:25:35;2.17;;;1.80;;
21432;SDS011;18592;49.708;10.900;2023-12-20T01:27:36;2.85;;;1.80;;
21432;SDS011;18592;49.708;10.900;2023-12-20T01:29:43;1.75;;;1.60;;
21432;SDS011;18592;49.708;10.900;2023-12-20T01:31:45;2.63;;;1.70;;
21432;SDS011;18592;49.708;10.900;2023-12-20T01:33:46;2.53;;;1.65;;
21432;SDS011;18592;49.708;10.900;2023-12-20T01:35:48;2.05;;;1.48;;
21432;SDS011;18592;49.708;10.900;2023-12-20T01:37:49;2.00;;;1.52;;
21432;SDS011;18592;49.708;10.900;2023-12-20T01:39:51;2.17;;;1.50;;
21432;SDS011;18592;49.708;10.900;2023-12-20T01:41:53;1.75;;;1.33;;
21432;SDS011;18592;49.708;10.900;2023-12-20T01:43:55;1.77;;;1.23;;
21432;SDS011;18592;49.708;10.900;2023-12-20T01:45:57;1.33;;;1.05;;
21432;SDS011;18592;49.708;10.900;2023-12-20T01:47:59;1.42;;;1.20;;
21432;SDS011;18592;49.708;10.900;2023-12-20T01:50:06;2.50;;;1.27;;
21432;SDS011;18592;49.708;10.900;2023-12-20T01:52:09;1.15;;;1.05;;
21432;SDS011;18592;49.708;10.900;2023-12-20T01:54:13;1.10;;;1.00;;
21432;SDS011;18592;49.708;10.900;2023-12-20T01:56:15;2.00;;;0.98;;
21432;SDS011;18592;49.708;10.900;2023-12-20T01:58:17;1.20;;;1.00;;
21432;SDS011;18592;49.708;10.900;2023-12-20T02:00:20;1.33;;;1.15;;
21432;SDS011;18592;49.708;10.900;2023-12-20T02:02:25;1.20;;;1.10;;
21432;SDS011;18592;49.708;10.900;2023-12-20T02:04:28;2.40;;;1.20;;
21432;SDS011;18592;49.708;10.900;2023-12-20T02:06:30;1.60;;;1.05;;
21432;SDS011;18592;49.708;10.900;2023-12-20T02:08:35;1.20;;;1.00;;
21432;SDS011;18592;49.708;10.900;2023-12-20T02:10:37;1.50;;;1.13;;
21432;SDS011;18592;49.708;10.900;2023-12-20T02:12:40;1.83;;;1.05;;
21432;SDS011;18592;49.708;10.900;2023-12-20T02:14:41;1.20;;;0.98;;
21432;SDS011;18592;49.708;10.900;2023-12-20T02:16:43;1.40;;;0.98;;
21432;SDS011;18592;49.708;10.900;2023-12-20T02:18:48;1.20;;;0.98;;
21432;SDS011;18592;49.708;10.900;2023-12-20T02:20:53;1.27;;;1.00;;
21432;SDS011;18592;49.708;10.900;2023-12-20T02:22:56;1.10;;;0.95;;
21432;SDS011;18592;49.708;10.900;2023-12-20T02:24:57;0.70;;;0.70;;
21432;SDS011;18592;49.708;10.900;2023-12-20T02:27:00;1.33;;;0.70;;
21432;SDS011;18592;49.708;10.900;2023-12-20T02:29:01;1.20;;;0.90;;
21432;SDS011;18592;49.708;10.900;2023-12-20T02:31:03;1.00;;;0.80;;
21432;SDS011;18592;49.708;10.900;2023-12-20T02:33:07;0.98;;;0.70;;
21432;SDS011;18592;49.708;10.900;2023-12-20T02:35:10;1.33;;;0.85;;
21432;SDS011;18592;49.708;10.900;2023-12-20T02:37:12;0.77;;;0.70;;
21432;SDS011;18592;49.708;10.900;2023-12-20T02:39:13;1.13;;;0.93;;
21432;SDS011;18592;49.708;10.900;2023-12-20T02:41:15;0.57;;;0.57;;
21432;SDS011;18592;49.708;10.900;2023-12-20T02:43:22;1.15;;;0.70;;
21432;SDS011;18592;49.708;10.900;2023-12-20T02:45:24;0.88;;;0.50;;
21432;SDS011;18592;49.708;10.900;2023-12-20T02:47:26;1.65;;;0.70;;
21432;SDS011;18592;49.708;10.900;2023-12-20T02:49:27;0.73;;;0.70;;
21432;SDS011;18592;49.708;10.900;2023-12-20T02:51:29;0.68;;;0.68;;
21432;SDS011;18592;49.708;10.900;2023-12-20T02:53:31;0.52;;;0.50;;
21432;SDS011;18592;49.708;10.900;2023-12-20T02:55:32;0.50;;;0.50;;
21432;SDS011;18592;49.708;10.900;2023-12-20T02:57:34;0.50;;;0.50;;
21432;SDS011;18592;49.708;10.900;2023-12-20T02:59:37;0.55;;;0.55;;
21432;SDS011;18592;49.708;10.900;2023-12-20T03:01:43;1.08;;;0.60;;
21432;SDS011;18592;49.708;10.900;2023-12-20T03:03:46;0.40;;;0.40;;
21432;SDS011;18592;49.708;10.900;2023-12-20T03:05:49;0.60;;;0.50;;
21432;SDS011;18592;49.708;10.900;2023-12-20T03:07:50;0.70;;;0.70;;
21432;SDS011;18592;49.708;10.900;2023-12-20T03:09:52;1.00;;;0.60;;
21432;SDS011;18592;49.708;10.900;2023-12-20T03:12:13;0.85;;;0.65;;
21432;SDS011;18592;49.708;10.900;2023-12-20T03:14:14;0.75;;;0.50;;
21432;SDS011;18592;49.708;10.900;2023-12-20T03:16:16;0.55;;;0.40;;
21432;SDS011;18592;49.708;10.900;2023-12-20T03:18:18;1.13;;;0.70;;
21432;SDS011;18592;49.708;10.900;2023-12-20T03:20:19;1.17;;;0.75;;
21432;SDS011;18592;49.708;10.900;2023-12-20T03:22:21;0.50;;;0.50;;
21432;SDS011;18592;49.708;10.900;2023-12-20T03:24:22;0.50;;;0.50;;
21432;SDS011;18592;49.708;10.900;2023-12-20T03:26:24;0.55;;;0.55;;
21432;SDS011;18592;49.708;10.900;2023-12-20T03:28:26;1.35;;;0.65;;
21432;SDS011;18592;49.708;10.900;2023-12-20T03:30:29;0.57;;;0.57;;
21432;SDS011;18592;49.708;10.900;2023-12-20T03:32:30;0.75;;;0.65;;
21432;SDS011;18592;49.708;10.900;2023-12-20T03:34:32;0.50;;;0.50;;
21432;SDS011;18592;49.708;10.900;2023-12-20T03:36:33;1.27;;;0.52;;
21432;SDS011;18592;49.708;10.900;2023-12-20T03:38:35;0.63;;;0.60;;
21432;SDS011;18592;49.708;10.900;2023-12-20T03:40:45;0.70;;;0.60;;
21432;SDS011;18592;49.708;10.900;2023-12-20T03:42:47;0.68;;;0.60;;
21432;SDS011;18592;49.708;10.900;2023-12-20T03:44:48;1.40;;;0.50;;
21432;SDS011;18592;49.708;10.900;2023-12-20T03:46:50;1.20;;;0.50;;
21432;SDS011;18592;49.708;10.900;2023-12-20T03:48:51;0.68;;;0.50;;
21432;SDS011;18592;49.708;10.900;2023-12-20T03:50:53;0.80;;;0.60;;
21432;SDS011;18592;49.708;10.900;2023-12-20T03:52:54;0.60;;;0.40;;
21432;SDS011;18592;49.708;10.900;2023-12-20T03:54:59;0.50;;;0.50;;
21432;SDS011;18592;49.708;10.900;2023-12-20T03:57:01;0.40;;;0.40;;
21432;SDS011;18592;49.708;10.900;2023-12-20T03:59:03;0.68;;;0.52;;
21432;SDS011;18592;49.708;10.900;2023-12-20T04:01:08;0.93;;;0.47;;
21432;SDS011;18592;49.708;10.900;2023-12-20T04:03:11;0.65;;;0.50;;
21432;SDS011;18592;49.708;10.900;2023-12-20T04:05:25;0.85;;;0.52;;
21432;SDS011;18592;49.708;10.900;2023-12-20T04:07:27;0.50;;;0.50;;
21432;SDS011;18592;49.708;10.900;2023-12-20T04:09:28;1.23;;;0.40;;
21432;SDS011;18592;49.708;10.900;2023-12-20T04:11:30;0.77;;;0.50;;
21432;SDS011;18592;49.708;10.900;2023-12-20T04:13:31;0.57;;;0.50;;
21432;SDS011;18592;49.708;10.900;2023-12-20T04:15:33;0.60;;;0.57;;
21432;SDS011;18592;49.708;10.900;2023-12-20T04:17:35;0.30;;;0.30;;
21432;SDS011;18592;49.708;10.900;2023-12-20T04:19:38;0.50;;;0.50;;
21432;SDS011;18592;49.708;10.900;2023-12-20T04:21:39;0.40;;;0.40;;
21432;SDS011;18592;49.708;10.900;2023-12-20T04:23:41;1.25;;;0.50;;
21432;SDS011;18592;49.708;10.900;2023-12-20T04:25:42;0.40;;;0.40;;
21432;SDS011;18592;49.708;10.900;2023-12-20T04:27:47;0.57;;;0.50;;
21432;SDS011;18592;49.708;10.900;2023-12-20T04:29:49;1.08;;;0.43;;
21432;SDS011;18592;49.708;10.900;2023-12-20T04:31:51;0.50;;;0.50;;
21432;SDS011;18592;49.708;10.900;2023-12-20T04:33:57;0.60;;;0.50;;
21432;SDS011;18592;49.708;10.900;2023-12-20T04:35:59;0.60;;;0.47;;
21432;SDS011;18592;49.708;10.900;2023-12-20T04:38:01;0.38;;;0.38;;
21432;SDS011;18592;49.708;10.900;2023-12-20T04:40:03;0.60;;;0.50;;
21432;SDS011;18592;49.708;10.900;2023-12-20T04:42:06;0.60;;;0.40;;
21432;SDS011;18592;49.708;10.900;2023-12-20T04:44:08;0.30;;;0.30;;
21432;SDS011;18592;49.708;10.900;2023-12-20T04:46:09;0.82;;;0.50;;
21432;SDS011;18592;49.708;10.900;2023-12-20T04:48:11;0.35;;;0.35;;
21432;SDS011;18592;49.708;10.900;2023-12-20T04:50:13;0.45;;;0.45;;
21432;SDS011;18592;49.708;10.900;2023-12-20T04:52:16;0.38;;;0.35;;
21432;SDS011;18592;49.708;10.900;2023-12-20T04:54:17;0.43;;;0.40;;
21432;SDS011;18592;49.708;10.900;2023-12-20T04:56:19;0.77;;;0.40;;
21432;SDS011;18592;49.708;10.900;2023-12-20T04:58:20;0.65;;;0.43;;
21432;SDS011;18592;49.708;10.900;2023-12-20T05:00:22;0.40;;;0.40;;
21432;SDS011;18592;49.708;10.900;2023-12-20T05:02:23;0.40;;;0.40;;
21432;SDS011;18592;49.708;10.900;2023-12-20T05:04:25;0.40;;;0.40;;
21432;SDS011;18592;49.708;10.900;2023-12-20T05:06:26;0.40;;;0.40;;
21432;SDS011;18592;49.708;10.900;2023-12-20T05:08:28;0.70;;;0.35;;
21432;SDS011;18592;49.708;10.900;2023-12-20T05:10:29;0.70;;;0.50;;
21432;SDS011;18592;49.708;10.900;2023-12-20T05:12:31;0.90;;;0.50;;
21432;SDS011;18592;49.708;10.900;2023-12-20T05:14:37;0.70;;;0.60;;
21432;SDS011;18592;49.708;10.900;2023-12-20T05:16:38;0.60;;;0.47;;
21432;SDS011;18592;49.708;10.900;2023-12-20T05:18:40;0.40;;;0.40;;
21432;SDS011;18592;49.708;10.900;2023-12-20T05:20:42;0.47;;;0.47;;
21432;SDS011;18592;49.708;10.900;2023-12-20T05:22:43;0.73;;;0.63;;
21432;SDS011;18592;49.708;10.900;2023-12-20T05:24:46;0.57;;;0.50;;
21432;SDS011;18592;49.708;10.900;2023-12-20T05:26:50;0.95;;;0.50;;
21432;SDS011;18592;49.708;10.900;2023-12-20T05:28:54;0.68;;;0.50;;
21432;SDS011;18592;49.708;10.900;2023-12-20T05:30:55;0.40;;;0.40;;
21432;SDS011;18592;49.708;10.900;2023-12-20T05:32:58;0.63;;;0.50;;
21432;SDS011;18592;49.708;10.900;2023-12-20T05:35:00;1.13;;;0.52;;
21432;SDS011;18592;49.708;10.900;2023-12-20T05:37:01;0.43;;;0.40;;
21432;SDS011;18592;49.708;10.900;2023-12-20T05:39:03;0.73;;;0.55;;
21432;SDS011;18592;49.708;10.900;2023-12-20T05:41:05;0.65;;;0.52;;
21432;SDS011;18592;49.708;10.900;2023-12-20T05:43:06;0.65;;;0.47;;
21432;SDS011;18592;49.708;10.900;2023-12-20T05:45:08;1.55;;;0.60;;
21432;SDS011;18592;49.708;10.900;2023-12-20T05:47:10;1.38;;;0.70;;
21432;SDS011;18592;49.708;10.900;2023-12-20T05:49:12;0.50;;;0.50;;
21432;SDS011;18592;49.708;10.900;2023-12-20T05:51:13;0.73;;;0.70;;
21432;SDS011;18592;49.708;10.900;2023-12-20T05:53:15;0.50;;;0.50;;
21432;SDS011;18592;49.708;10.900;2023-12-20T05:55:16;0.77;;;0.73;;
21432;SDS011;18592;49.708;10.900;2023-12-20T05:57:18;0.68;;;0.60;;
21432;SDS011;18592;49.708;10.900;2023-12-20T05:59:19;2.40;;;0.60;;
21432;SDS011;18592;49.708;10.900;2023-12-20T06:01:21;0.50;;;0.50;;
21432;SDS011;18592;49.708;10.900;2023-12-20T06:03:23;0.75;;;0.60;;
21432;SDS011;18592;49.708;10.900;2023-12-20T06:05:24;0.75;;;0.55;;
21432;SDS011;18592;49.708;10.900;2023-12-20T06:07:26;0.40;;;0.40;;
21432;SDS011;18592;49.708;10.900;2023-12-20T06:09:28;0.60;;;0.40;;
21432;SDS011;18592;49.708;10.900;2023-12-20T06:11:32;0.63;;;0.50;;
21432;SDS011;18592;49.708;10.900;2023-12-20T06:13:33;1.50;;;0.60;;
21432;SDS011;18592;49.708;10.900;2023-12-20T06:15:35;0.85;;;0.60;;
21432;SDS011;18592;49.708;10.900;2023-12-20T06:17:36;0.70;;;0.70;;
21432;SDS011;18592;49.708;10.900;2023-12-20T06:20:16;0.82;;;0.70;;
21432;SDS011;18592;49.708;10.900;2023-12-20T06:23:18;0.52;;;0.52;;
21432;SDS011;18592;49.708;10.900;2023-12-20T06:25:23;0.70;;;0.70;;
21432;SDS011;18592;49.708;10.900;2023-12-20T06:27:25;0.80;;;0.68;;
21432;SDS011;18592;49.708;10.900;2023-12-20T06:29:26;1.77;;;0.60;;
21432;SDS011;18592;49.708;10.900;2023-12-20T06:31:28;0.70;;;0.65;;
21432;SDS011;18592;49.708;10.900;2023-12-20T06:33:29;0.75;;;0.63;;
21432;SDS011;18592;49.708;10.900;2023-12-20T06:35:32;1.80;;;0.55;;
21432;SDS011;18592;49.708;10.900;2023-12-20T06:37:37;0.70;;;0.70;;
21432;SDS011;18592;49.708;10.900;2023-12-20T06:39:38;0.75;;;0.75;;
21432;SDS011;18592;49.708;10.900;2023-12-20T06:41:40;0.73;;;0.63;;
21432;SDS011;18592;49.708;10.900;2023-12-20T06:43:42;0.75;;;0.75;;
21432;SDS011;18592;49.708;10.900;2023-12-20T06:45:54;0.80;;;0.70;;
21432;SDS011;18592;49.708;10.900;2023-12-20T06:48:01;0.80;;;0.70;;
21432;SDS011;18592;49.708;10.900;2023-12-20T06:50:02;0.90;;;0.77;;
21432;SDS011;18592;49.708;10.900;2023-12-20T06:52:04;0.60;;;0.60;;
21432;SDS011;18592;49.708;10.900;2023-12-20T06:54:06;0.65;;;0.65;;
21432;SDS011;18592;49.708;10.900;2023-12-20T06:56:09;0.75;;;0.65;;
21432;SDS011;18592;49.708;10.900;2023-12-20T06:58:15;0.68;;;0.68;;
21432;SDS011;18592;49.708;10.900;2023-12-20T07:00:17;0.63;;;0.60;;
21432;SDS011;18592;49.708;10.900;2023-12-20T07:02:21;0.73;;;0.60;;
21432;SDS011;18592;49.708;10.900;2023-12-20T07:04:23;0.60;;;0.60;;
21432;SDS011;18592;49.708;10.900;2023-12-20T07:06:25;1.00;;;0.90;;
21432;SDS011;18592;49.708;10.900;2023-12-20T07:08:27;0.77;;;0.70;;
21432;SDS011;18592;49.708;10.900;2023-12-20T07:10:29;0.70;;;0.70;;
21432;SDS011;18592;49.708;10.900;2023-12-20T07:12:30;0.70;;;0.70;;
21432;SDS011;18592;49.708;10.900;2023-12-20T07:14:32;0.70;;;0.70;;
21432;SDS011;18592;49.708;10.900;2023-12-20T07:16:34;0.60;;;0.60;;
21432;SDS011;18592;49.708;10.900;2023-12-20T07:18:36;0.68;;;0.60;;
21432;SDS011;18592;49.708;10.900;2023-12-20T07:20:37;0.60;;;0.60;;
21432;SDS011;18592;49.708;10.900;2023-12-20T07:22:39;1.20;;;0.75;;
21432;SDS011;18592;49.708;10.900;2023-12-20T07:24:40;0.65;;;0.65;;
21432;SDS011;18592;49.708;10.900;2023-12-20T07:26:42;0.68;;;0.68;;
21432;SDS011;18592;49.708;10.900;2023-12-20T07:28:44;1.20;;;0.90;;
21432;SDS011;18592;49.708;10.900;2023-12-20T07:30:46;1.00;;;0.80;;
21432;SDS011;18592;49.708;10.900;2023-12-20T07:32:47;0.98;;;0.82;;
21432;SDS011;18592;49.708;10.900;2023-12-20T07:34:49;1.80;;;1.00;;
21432;SDS011;18592;49.708;10.900;2023-12-20T07:36:51;0.98;;;0.80;;
21432;SDS011;18592;49.708;10.900;2023-12-20T07:38:52;0.80;;;0.80;;
21432;SDS011;18592;49.708;10.900;2023-12-20T07:40:54;0.90;;;0.88;;
21432;SDS011;18592;49.708;10.900;2023-12-20T07:42:56;1.10;;;1.00;;
21432;SDS011;18592;49.708;10.900;2023-12-20T07:44:58;1.35;;;0.95;;
21432;SDS011;18592;49.708;10.900;2023-12-20T07:46:59;0.93;;;0.90;;
21432;SDS011;18592;49.708;10.900;2023-12-20T07:49:02;1.30;;;1.20;;
21432;SDS011;18592;49.708;10.900;2023-12-20T07:51:05;1.10;;;1.00;;
21432;SDS011;18592;49.708;10.900;2023-12-20T07:53:11;1.13;;;1.02;;
21432;SDS011;18592;49.708;10.900;2023-12-20T07:55:16;1.52;;;1.00;;
21432;SDS011;18592;49.708;10.900;2023-12-20T07:57:18;1.20;;;1.02;;
21432;SDS011;18592;49.708;10.900;2023-12-20T07:59:19;1.00;;;0.90;;
21432;SDS011;18592;49.708;10.900;2023-12-20T08:01:32;1.08;;;0.98;;
21432;SDS011;18592;49.708;10.900;2023-12-20T08:03:36;1.00;;;0.90;;
21432;SDS011;18592;49.708;10.900;2023-12-20T08:05:38;1.30;;;1.00;;
21432;SDS011;18592;49.708;10.900;2023-12-20T08:07:41;1.10;;;0.80;;
21432;SDS011;18592;49.708;10.900;2023-12-20T08:09:43;0.82;;;0.82;;
21432;SDS011;18592;49.708;10.900;2023-12-20T08:11:45;1.05;;;0.95;;
21432;SDS011;18592;49.708;10.900;2023-12-20T08:13:47;1.20;;;0.93;;
21432;SDS011;18592;49.708;10.900;2023-12-20T08:15:54;1.48;;;1.20;;
21432;SDS011;18592;49.708;10.900;2023-12-20T08:18:00;1.10;;;1.00;;
21432;SDS011;18592;49.708;10.900;2023-12-20T08:20:01;1.55;;;1.17;;
21432;SDS011;18592;49.708;10.900;2023-12-20T08:22:03;2.85;;;1.20;;
21432;SDS011;18592;49.708;10.900;2023-12-20T08:24:07;1.02;;;0.95;;
21432;SDS011;18592;49.708;10.900;2023-12-20T08:26:09;1.92;;;1.20;;
21432;SDS011;18592;49.708;10.900;2023-12-20T08:28:11;2.03;;;1.30;;
21432;SDS011;18592;49.708;10.900;2023-12-20T08:30:13;1.40;;;1.30;;
21432;SDS011;18592;49.708;10.900;2023-12-20T08:32:19;1.33;;;1.17;;
21432;SDS011;18592;49.708;10.900;2023-12-20T08:34:21;1.48;;;1.20;;
21432;SDS011;18592;49.708;10.900;2023-12-20T08:36:23;1.27;;;1.17;;
21432;SDS011;18592;49.708;10.900;2023-12-20T08:38:25;1.23;;;1.10;;
21432;SDS011;18592;49.708;10.900;2023-12-20T08:40:26;1.27;;;1.17;;
21432;SDS011;18592;49.708;10.900;2023-12-20T08:42:28;1.38;;;1.27;;
21432;SDS011;18592;49.708;10.900;2023-12-20T08:44:32;1.70;;;1.40;;
21432;SDS011;18592;49.708;10.900;2023-12-20T08:46:34;1.63;;;1.30;;
21432;SDS011;18592;49.708;10.900;2023-12-20T08:48:36;1.25;;;1.10;;
21432;SDS011;18592;49.708;10.900;2023-12-20T08:50:38;1.20;;;1.10;;
21432;SDS011;18592;49.708;10.900;2023-12-20T08:52:40;1.20;;;1.10;;
21432;SDS011;18592;49.708;10.900;2023-12-20T08:54:43;1.15;;;1.05;;
21432;SDS011;18592;49.708;10.900;2023-12-20T08:56:46;0.95;;;0.90;;
21432;SDS011;18592;49.708;10.900;2023-12-20T08:58:47;1.15;;;1.02;;
21432;SDS011;18592;49.708;10.900;2023-12-20T09:00:49;0.90;;;0.90;;
21432;SDS011;18592;49.708;10.900;2023-12-20T09:02:51;2.25;;;1.17;;
21432;SDS011;18592;49.708;10.900;2023-12-20T09:04:53;1.15;;;0.90;;
21432;SDS011;18592;49.708;10.900;2023-12-20T09:06:54;1.10;;;1.00;;
21432;SDS011;18592;49.708;10.900;2023-12-20T09:08:56;1.63;;;0.95;;
21432;SDS011;18592;49.708;10.900;2023-12-20T09:10:58;1.30;;;1.15;;
21432;SDS011;18592;49.708;10.900;2023-12-20T09:13:00;1.00;;;0.90;;
21432;SDS011;18592;49.708;10.900;2023-12-20T09:15:01;1.48;;;1.20;;
21432;SDS011;18592;49.708;10.900;2023-12-20T09:17:04;2.00;;;1.17;;
21432;SDS011;18592;49.708;10.900;2023-12-20T09:19:06;1.38;;;1.20;;
21432;SDS011;18592;49.708;10.900;2023-12-20T09:21:08;1.98;;;0.95;;
21432;SDS011;18592;49.708;10.900;2023-12-20T09:23:09;1.98;;;1.20;;
21432;SDS011;18592;49.708;10.900;2023-12-20T09:25:11;1.85;;;1.33;;
21432;SDS011;18592;49.708;10.900;2023-12-20T09:27:13;1.45;;;1.27;;
21432;SDS011;18592;49.708;10.900;2023-12-20T09:29:15;2.30;;;1.10;;
21432;SDS011;18592;49.708;10.900;2023-12-20T09:31:17;1.98;;;1.20;;
21432;SDS011;18592;49.708;10.900;2023-12-20T09:33:19;1.98;;;1.13;;
21432;SDS011;18592;49.708;10.900;2023-12-20T09:35:21;1.75;;;1.05;;
21432;SDS011;18592;49.708;10.900;2023-12-20T09:37:26;1.90;;;1.10;;
21432;SDS011;18592;49.708;10.900;2023-12-20T09:39:29;2.40;;;1.13;;
21432;SDS011;18592;49.708;10.900;2023-12-20T09:41:31;1.63;;;1.05;;
21432;SDS011;18592;49.708;10.900;2023-12-20T09:43:37;1.58;;;1.05;;
21432;SDS011;18592;49.708;10.900;2023-12-20T09:45:39;2.13;;;1.23;;
21432;SDS011;18592;49.708;10.900;2023-12-20T09:47:43;2.55;;;1.10;;
21432;SDS011;18592;49.708;10.900;2023-12-20T09:49:45;1.67;;;1.08;;
21432;SDS011;18592;49.708;10.900;2023-12-20T09:51:47;2.65;;;1.30;;
21432;SDS011;18592;49.708;10.900;2023-12-20T09:53:51;1.92;;;1.10;;
21432;SDS011;18592;49.708;10.900;2023-12-20T09:55:59;1.77;;;1.00;;
21432;SDS011;18592;49.708;10.900;2023-12-20T09:58:02;1.73;;;0.90;;
21432;SDS011;18592;49.708;10.900;2023-12-20T10:00:03;2.35;;;1.42;;
21432;SDS011;18592;49.708;10.900;2023-12-20T10:02:12;2.40;;;1.10;;
21432;SDS011;18592;49.708;10.900;2023-12-20T10:04:18;1.55;;;0.95;;
21432;SDS011;18592;49.708;10.900;2023-12-20T10:06:30;1.75;;;1.20;;
21432;SDS011;18592;49.708;10.900;2023-12-20T10:08:32;2.35;;;0.90;;
21432;SDS011;18592;49.708;10.900;2023-12-20T10:10:34;1.92;;;0.98;;
21432;SDS011;18592;49.708;10.900;2023-12-20T10:13:00;2.17;;;1.17;;
21432;SDS011;18592;49.708;10.900;2023-12-20T10:15:07;2.45;;;0.90;;
21432;SDS011;18592;49.708;10.900;2023-12-20T10:17:13;2.63;;;1.13;;
21432;SDS011;18592;49.708;10.900;2023-12-20T10:19:19;2.15;;;0.93;;
21432;SDS011;18592;49.708;10.900;2023-12-20T10:21:21;4.18;;;1.23;;
21432;SDS011;18592;49.708;10.900;2023-12-20T10:23:23;2.30;;;1.02;;
21432;SDS011;18592;49.708;10.900;2023-12-20T10:25:25;2.95;;;1.20;;
21432;SDS011;18592;49.708;10.900;2023-12-20T10:27:27;2.60;;;0.98;;
21432;SDS011;18592;49.708;10.900;2023-12-20T10:29:31;5.18;;;1.20;;
21432;SDS011;18592;49.708;10.900;2023-12-20T10:31:39;2.85;;;0.95;;
21432;SDS011;18592;49.708;10.900;2023-12-20T10:33:41;2.33;;;1.13;;
21432;SDS011;18592;49.708;10.900;2023-12-20T10:35:43;3.05;;;1.23;;
21432;SDS011;18592;49.708;10.900;2023-12-20T10:37:48;2.00;;;1.05;;
21432;SDS011;18592;49.708;10.900;2023-12-20T10:39:53;4.43;;;1.17;;
21432;SDS011;18592;49.708;10.900;2023-12-20T10:41:59;2.13;;;0.90;;
21432;SDS011;18592;49.708;10.900;2023-12-20T10:44:02;3.20;;;1.08;;
21432;SDS011;18592;49.708;10.900;2023-12-20T10:46:06;1.30;;;0.90;;
21432;SDS011;18592;49.708;10.900;2023-12-20T10:48:09;2.22;;;1.00;;
21432;SDS011;18592;49.708;10.900;2023-12-20T10:50:12;4.22;;;1.10;;
21432;SDS011;18592;49.708;10.900;2023-12-20T10:52:14;1.58;;;0.85;;
21432;SDS011;18592;49.708;10.900;2023-12-20T10:54:15;3.08;;;1.10;;
21432;SDS011;18592;49.708;10.900;2023-12-20T10:56:18;1.60;;;1.10;;
21432;SDS011;18592;49.708;10.900;2023-12-20T10:58:20;2.47;;;0.90;;
21432;SDS011;18592;49.708;10.900;2023-12-20T11:00:25;2.75;;;0.93;;
21432;SDS011;18592;49.708;10.900;2023-12-20T11:02:27;2.63;;;1.30;;
21432;SDS011;18592;49.708;10.900;2023-12-20T11:04:38;3.45;;;0.95;;
21432;SDS011;18592;49.708;10.900;2023-12-20T11:06:49;3.47;;;1.02;;
21432;SDS011;18592;49.708;10.900;2023-12-20T11:09:06;3.92;;;1.00;;
21432;SDS011;18592;49.708;10.900;2023-12-20T11:13:43;2.35;;;1.17;;
21432;SDS011;18592;49.708;10.900;2023-12-20T11:15:54;3.22;;;0.90;;
21432;SDS011;18592;49.708;10.900;2023-12-20T11:17:56;3.33;;;1.40;;
21432;SDS011;18592;49.708;10.900;2023-12-20T11:22:06;5.60;;;1.10;;
21432;SDS011;18592;49.708;10.900;2023-12-20T11:24:09;3.33;;;1.13;;
21432;SDS011;18592;49.708;10.900;2023-12-20T11:26:10;1.70;;;0.90;;
21432;SDS011;18592;49.708;10.900;2023-12-20T11:28:22;2.10;;;0.90;;
21432;SDS011;18592;49.708;10.900;2023-12-20T11:30:25;2.10;;;0.93;;
21432;SDS011;18592;49.708;10.900;2023-12-20T11:32:45;1.63;;;1.10;;
21432;SDS011;18592;49.708;10.900;2023-12-20T11:34:47;2.83;;;0.90;;
21432;SDS011;18592;49.708;10.900;2023-12-20T11:36:49;2.20;;;0.88;;
21432;SDS011;18592;49.708;10.900;2023-12-20T11:39:03;3.33;;;1.00;;
21432;SDS011;18592;49.708;10.900;2023-12-20T11:41:12;2.17;;;1.00;;
21432;SDS011;18592;49.708;10.900;2023-12-20T11:43:29;3.33;;;1.27;;
21432;SDS011;18592;49.708;10.900;2023-12-20T11:45:31;5.22;;;1.25;;
21432;SDS011;18592;49.708;10.900;2023-12-20T11:47:33;3.42;;;1.20;;
21432;SDS011;18592;49.708;10.900;2023-12-20T11:49:36;3.10;;;1.20;;
21432;SDS011;18592;49.708;10.900;2023-12-20T11:51:40;1.73;;;0.98;;
21432;SDS011;18592;49.708;10.900;2023-12-20T11:53:43;4.43;;;1.05;;
21432;SDS011;18592;49.708;10.900;2023-12-20T11:55:47;2.08;;;1.10;;
21432;SDS011;18592;49.708;10.900;2023-12-20T11:57:50;1.65;;;1.15;;
21432;SDS011;18592;49.708;10.900;2023-12-20T11:59:52;3.30;;;1.02;;
21432;SDS011;18592;49.708;10.900;2023-12-20T12:01:54;2.95;;;1.02;;
21432;SDS011;18592;49.708;10.900;2023-12-20T12:04:05;4.15;;;1.33;;
21432;SDS011;18592;49.708;10.900;2023-12-20T12:06:08;2.55;;;1.20;;
21432;SDS011;18592;49.708;10.900;2023-12-20T12:08:10;2.75;;;1.10;;
21432;SDS011;18592;49.708;10.900;2023-12-20T12:10:11;2.85;;;1.20;;
21432;SDS011;18592;49.708;10.900;2023-12-20T12:12:13;2.90;;;1.23;;
21432;SDS011;18592;49.708;10.900;2023-12-20T12:14:15;3.00;;;1.17;;